CheckWX is a tool to help pilots better visualize weather data.  It is not intended as a substitute for an official pre-flight weather briefing.

07:35:31 UTC

LIRE TAF
Pratica Di Mare Airport
Pomezia, Italy
TAF LIRE 060500Z 0606/0615 05008KT 9999 SCT030 SCT050 TEMPO 0606/0612 5000 SHRA FEW020TCU BECMG 0607/0609 16010KT

Dec-6@
06:00 UTC

Dec-6 @ 06:00 UTC

Dec-6@
07:00 UTC

Dec-6 @ 07:00 UTC

TAF LIRE 060500Z 0606/0615 05008KT 9999 SCT030 SCT050

Expired

Wind
  • 050° at 8 KTS
Cloud Levels
  • Scattered at 3,000' AGL
  • Scattered at 5,000' AGL

Dec-6@
06:00 UTC

Dec-6 @ 06:00 UTC

Dec-6@
12:00 UTC

Dec-6 @ 12:00 UTC

TEMPO 0606/0612 5000 SHRA FEW020TCU

Temporary

Temporary Changes expected for less than half the time period

Conditions
Rain
Cloud Levels
  • Few at 2,000' AGL

Dec-6@
07:00 UTC

Dec-6 @ 07:00 UTC

Dec-6@
15:00 UTC

Dec-6 @ 15:00 UTC

BECMG 0607/0609 16010KT

Becoming

Becoming Conditions expected by Fri, Dec 6, 2019 @ 09:00 UTC

Wind
  • 160° at 10 KTS
Cloud Levels
  • Scattered at 3,000' AGL
  • Scattered at 5,000' AGL